Time;durP1;ratioP1;P1;durP2;ratioP2;P2;SDS_P1;SDS_P2;PMS_P1;PMS_P2;Temp;Humidity;BMP_temperature;BMP_pressure;BME280_temperature;BME280_humidity;BME280_pressure;Samples;Min_cycle;Max_cycle;Signal;HPM_P1;HPM_P2
2022/10/08 00:01:29;;;;;;;9.30;5.45;;;;;;;16.55;82.40;101237.06;5032587;28;20049;-72
2022/10/08 00:03:57;;;;;;;6.53;5.03;;;;;;;16.52;82.39;101228.28;5019551;28;20044;-73
2022/10/08 00:06:32;;;;;;;7.97;5.25;;;;;;;16.48;82.81;101237.50;5033025;28;20049;-72
2022/10/08 00:09:05;;;;;;;8.80;5.07;;;;;;;16.42;83.31;101233.19;5032580;28;20060;-73
2022/10/08 00:11:36;;;;;;;8.05;5.47;;;;;;;16.47;82.92;101235.88;5032858;28;20381;-72
2022/10/08 00:14:05;;;;;;;7.07;4.78;;;;;;;16.37;82.56;101232.16;5032866;28;20504;-72
2022/10/08 00:16:39;;;;;;;8.35;5.03;;;;;;;16.36;82.95;101226.91;5032805;28;20048;-73
2022/10/08 00:19:13;;;;;;;7.85;5.13;;;;;;;16.32;82.85;101226.72;5031444;28;20404;-72
2022/10/08 00:21:43;;;;;;;13.80;5.68;;;;;;;16.27;83.49;101218.50;5032342;28;20045;-73
2022/10/08 00:24:16;;;;;;;8.02;5.30;;;;;;;16.27;83.36;101212.19;5032825;28;20045;-73
2022/10/08 00:26:45;;;;;;;8.90;4.95;;;;;;;16.31;84.36;101216.78;5028316;28;20049;-73
2022/10/08 00:29:14;;;;;;;9.25;5.50;;;;;;;16.28;82.56;101211.06;5040569;28;20507;-73
2022/10/08 00:31:44;;;;;;;9.48;5.63;;;;;;;16.20;82.89;101209.81;5032256;28;20056;-73
2022/10/08 00:34:17;;;;;;;7.25;5.32;;;;;;;16.31;83.35;101211.25;5032466;28;20056;-73
2022/10/08 00:36:48;;;;;;;7.70;5.25;;;;;;;16.20;83.41;101213.41;5032363;28;20045;-73
2022/10/08 00:39:19;;;;;;;6.40;4.72;;;;;;;16.19;83.32;101213.69;5032320;28;20049;-73
2022/10/08 00:41:51;;;;;;;8.40;5.13;;;;;;;16.24;83.12;101208.09;5031201;28;20061;-73
2022/10/08 00:44:41;;;;;;;6.68;5.47;;;;;;;16.29;82.56;101204.41;5032449;28;20511;-73
2022/10/08 00:47:28;;;;;;;7.38;5.45;;;;;;;16.29;82.84;101202.47;5031753;28;20049;-73
2022/10/08 00:50:08;;;;;;;7.65;5.50;;;;;;;16.29;83.29;101188.66;5023935;28;20040;-73
2022/10/08 00:52:41;;;;;;;8.32;5.03;;;;;;;16.15;84.39;101190.56;5031388;28;20052;-72
2022/10/08 00:55:11;;;;;;;7.47;5.18;;;;;;;16.21;83.47;101183.81;5032190;28;20046;-72
2022/10/08 00:57:41;;;;;;;11.93;5.35;;;;;;;16.17;82.68;101185.56;5030380;28;20052;-72
2022/10/08 01:00:14;;;;;;;6.03;4.85;;;;;;;16.11;83.86;101182.91;5031453;28;20065;-73
2022/10/08 01:02:42;;;;;;;11.20;5.60;;;;;;;16.14;84.00;101186.16;5032198;28;20041;-73
2022/10/08 01:05:14;;;;;;;9.90;5.38;;;;;;;16.15;83.83;101187.81;5032116;28;20053;-73
2022/10/08 01:07:42;;;;;;;6.50;4.72;;;;;;;16.16;83.19;101186.66;5032014;28;20049;-73
2022/10/08 01:10:45;;;;;;;7.00;5.32;;;;;;;16.07;82.94;101173.56;5032118;28;20048;-73
2022/10/08 01:13:28;;;;;;;8.85;5.10;;;;;;;16.14;83.04;101183.41;5017696;28;20061;-73
2022/10/08 01:16:23;;;;;;;7.75;5.63;;;;;;;16.06;83.06;101171.94;5026782;28;20412;-73
2022/10/08 01:19:36;;;;;;;7.75;5.55;;;;;;;16.11;83.19;101174.63;5032040;28;20472;-73
2022/10/08 01:22:19;;;;;;;10.23;5.80;;;;;;;16.09;83.19;101176.03;5031243;28;20037;-73
2022/10/08 01:27:42;;;;;;;10.55;5.85;;;;;;;15.99;84.13;101169.56;5026712;28;20057;-73
2022/10/08 01:30:13;;;;;;;;;;;;;;;15.96;84.86;101180.38;5028734;28;20054;-72
2022/10/08 01:32:53;;;;;;;9.25;5.18;;;;;;;15.88;84.39;101172.78;5020461;28;19924;-73
2022/10/08 01:35:32;;;;;;;8.68;5.63;;;;;;;15.94;84.55;101160.56;5030817;28;20052;-73
2022/10/08 01:38:05;;;;;;;6.75;5.03;;;;;;;15.96;84.03;101161.06;5031730;28;20061;-73
2022/10/08 01:40:39;;;;;;;7.75;5.22;;;;;;;15.90;84.15;101157.56;5031004;28;20048;-73
2022/10/08 01:43:10;;;;;;;9.02;5.97;;;;;;;15.94;84.38;101160.56;5031787;28;20053;-73
2022/10/08 01:45:45;;;;;;;10.38;4.97;;;;;;;15.91;83.98;101150.09;5045772;28;20061;-73
2022/10/08 01:48:19;;;;;;;8.02;4.30;;;;;;;15.93;84.34;101150.66;5031526;28;20056;-73
2022/10/08 01:51:12;;;;;;;8.38;4.97;;;;;;;15.92;83.83;101160.00;5031622;28;20041;-73
2022/10/08 01:53:44;;;;;;;6.38;5.13;;;;;;;15.87;83.39;101140.78;5046892;28;20041;-72
2022/10/08 01:56:18;;;;;;;9.23;5.00;;;;;;;15.93;82.72;101140.41;5030478;28;20045;-73
2022/10/08 01:58:55;;;;;;;7.28;5.43;;;;;;;15.93;83.18;101150.66;5031496;28;20061;-72
2022/10/08 02:01:31;;;;;;;7.53;5.57;;;;;;;15.86;83.66;101137.19;5031635;28;20053;-73
2022/10/08 02:06:55;;;;;;;7.75;4.68;;;;;;;15.78;84.04;101127.66;5031548;28;20053;-73
2022/10/08 02:09:27;;;;;;;11.10;5.10;;;;;;;15.83;83.80;101130.34;5047074;28;20496;-73
2022/10/08 02:11:58;;;;;;;7.05;4.43;;;;;;;15.88;83.30;101128.63;5027343;28;20050;-73
2022/10/08 02:14:28;;;;;;;7.32;5.85;;;;;;;15.87;83.34;101122.28;5024190;28;20060;-73
2022/10/08 02:17:07;;;;;;;7.78;5.28;;;;;;;15.88;83.70;101123.09;5031155;28;20045;-73
2022/10/08 02:19:46;;;;;;;9.52;5.00;;;;;;;15.82;84.78;101128.72;5046693;28;20057;-73
2022/10/08 02:22:21;;;;;;;6.50;4.82;;;;;;;15.78;83.97;101116.63;5048697;28;20048;-73
2022/10/08 02:24:55;;;;;;;10.93;5.65;;;;;;;15.83;83.67;101112.94;5050023;28;20054;-73
2022/10/08 02:27:35;;;;;;;8.00;4.50;;;;;;;15.80;83.53;101113.56;5034870;28;20404;-73
2022/10/08 02:30:12;;;;;;;9.57;4.82;;;;;;;15.77;84.39;101117.75;5032825;28;20045;-73
2022/10/08 02:32:58;;;;;;;8.40;4.90;;;;;;;15.72;84.84;101115.09;5034835;28;20358;-73
2022/10/08 02:35:34;;;;;;;7.32;5.05;;;;;;;15.75;84.51;101121.94;5024998;28;20396;-73
2022/10/08 02:38:07;;;;;;;6.70;4.90;;;;;;;15.69;84.21;101113.75;5034605;28;20049;-73
2022/10/08 02:40:39;;;;;;;8.77;4.72;;;;;;;15.73;84.78;101113.94;5033490;28;20042;-73
2022/10/08 02:43:20;;;;;;;6.05;5.03;;;;;;;15.66;84.73;101110.78;5034599;28;20519;-73
2022/10/08 02:45:56;;;;;;;7.28;4.80;;;;;;;15.58;85.26;101102.06;5034426;28;20482;-73
2022/10/08 02:48:30;;;;;;;7.13;5.07;;;;;;;15.56;85.94;101114.53;5034624;28;20403;-73
2022/10/08 02:51:05;;;;;;;10.90;5.80;;;;;;;15.54;85.17;101108.50;5034442;28;20038;-73
2022/10/08 02:53:37;;;;;;;9.02;4.97;;;;;;;15.54;84.35;101106.53;5021543;28;20053;-73
2022/10/08 02:56:13;;;;;;;8.93;5.40;;;;;;;15.54;85.06;101105.75;5033444;28;20069;-73
2022/10/08 02:58:42;;;;;;;12.27;5.10;;;;;;;15.54;84.64;101117.56;5034664;28;20056;-73
2022/10/08 03:01:27;;;;;;;6.60;4.22;;;;;;;15.62;84.46;101116.06;5034457;28;20472;-73
2022/10/08 03:04:11;;;;;;;7.13;4.68;;;;;;;15.56;84.29;101104.28;5033440;28;20045;-73
2022/10/08 03:06:40;;;;;;;8.00;4.47;;;;;;;15.58;84.75;101107.59;5034163;28;20045;-73
2022/10/08 03:09:12;;;;;;;6.03;4.55;;;;;;;15.62;84.20;101110.56;5026357;28;20480;-73
2022/10/08 03:11:41;;;;;;;9.48;5.38;;;;;;;15.62;84.02;101107.78;5034211;28;20045;-73
2022/10/08 03:14:14;;;;;;;7.82;4.82;;;;;;;15.56;85.02;101104.28;5032694;28;20045;-73
2022/10/08 03:16:44;;;;;;;7.55;5.07;;;;;;;15.50;85.13;101104.69;5033999;28;20049;-73
2022/10/08 03:19:17;;;;;;;6.35;4.40;;;;;;;15.42;86.08;101111.69;5031908;28;20068;-73
2022/10/08 03:21:48;;;;;;;9.63;4.75;;;;;;;15.50;85.26;101118.47;5032719;28;20046;-73
2022/10/08 03:24:16;;;;;;;8.98;5.28;;;;;;;15.48;84.64;101116.00;5033864;28;20061;-73
2022/10/08 03:26:44;;;;;;;7.00;4.45;;;;;;;15.43;85.09;101111.41;5033835;28;20064;-73
2022/10/08 03:29:12;;;;;;;7.38;5.30;;;;;;;15.48;83.99;101117.97;5028840;28;20401;-73
2022/10/08 03:31:40;;;;;;;9.25;5.15;;;;;;;15.50;83.63;101122.03;5031853;28;20041;-73
2022/10/08 03:34:09;;;;;;;7.50;5.38;;;;;;;15.52;83.53;101119.81;5028925;28;20392;-73
2022/10/08 03:36:36;;;;;;;9.20;5.22;;;;;;;15.49;84.51;101123.16;5031204;28;20049;-73
2022/10/08 03:39:04;;;;;;;8.88;4.35;;;;;;;15.43;84.99;101127.13;5033614;28;20049;-73
2022/10/08 03:41:32;;;;;;;8.98;4.82;;;;;;;15.41;84.21;101118.34;5033319;28;20404;-73
2022/10/08 03:44:00;;;;;;;8.60;4.68;;;;;;;15.43;83.57;101121.59;5028856;28;20045;-73
2022/10/08 03:46:28;;;;;;;6.40;4.28;;;;;;;15.41;84.47;101118.34;5028044;28;20049;-73
2022/10/08 03:48:56;;;;;;;8.30;4.68;;;;;;;15.37;85.42;101111.78;5047927;28;20049;-73
2022/10/08 03:51:24;;;;;;;5.95;4.40;;;;;;;15.29;85.31;101113.28;5033250;28;20050;-72
2022/10/08 03:53:52;;;;;;;9.10;4.57;;;;;;;15.37;83.74;101115.38;5032919;28;20479;-73
2022/10/08 03:56:24;;;;;;;9.32;4.60;;;;;;;15.38;84.00;101117.00;5030258;28;20049;-72
2022/10/08 03:58:57;;;;;;;6.10;4.30;;;;;;;15.31;84.22;101098.06;5041656;28;20053;-72
2022/10/08 04:01:27;;;;;;;7.10;4.60;;;;;;;15.42;84.04;101103.44;5029876;28;20041;-73
2022/10/08 04:03:55;;;;;;;6.60;4.65;;;;;;;15.40;84.76;101113.94;5033032;28;20407;-73
2022/10/08 04:06:23;;;;;;;10.93;4.97;;;;;;;15.34;84.94;101118.72;5029812;28;20049;-72
2022/10/08 04:08:52;;;;;;;4.47;4.07;;;;;;;15.34;84.61;101117.91;5032619;28;20042;-73
2022/10/08 04:11:20;;;;;;;6.45;4.32;;;;;;;15.25;85.44;101121.31;5032759;28;20041;-72
2022/10/08 04:13:48;;;;;;;8.48;5.03;;;;;;;15.25;85.43;101118.56;5030370;28;20042;-72
2022/10/08 04:16:17;;;;;;;5.32;3.70;;;;;;;15.29;84.64;101122.38;5029626;28;20053;-73
2022/10/08 04:18:46;;;;;;;8.32;4.60;;;;;;;15.32;84.82;101121.75;5048294;28;20041;-72
2022/10/08 04:21:16;;;;;;;8.40;4.93;;;;;;;15.34;85.28;101120.66;5032590;28;20049;-72
2022/10/08 04:23:45;;;;;;;6.28;4.60;;;;;;;15.31;85.83;101122.09;5033157;28;20041;-73
2022/10/08 04:26:13;;;;;;;7.00;4.28;;;;;;;15.25;86.17;101124.09;5032735;28;20057;-73
2022/10/08 04:28:43;;;;;;;7.93;4.40;;;;;;;15.27;85.74;101123.78;5032693;28;20045;-73
2022/10/08 04:31:16;;;;;;;13.88;4.55;;;;;;;15.28;86.33;101129.00;5032371;28;20056;-72
2022/10/08 04:33:45;;;;;;;5.37;4.43;;;;;;;15.24;85.49;101121.66;5032492;28;20048;-73
2022/10/08 04:36:15;;;;;;;7.78;5.15;;;;;;;15.22;86.97;101116.41;5032441;28;20515;-73
2022/10/08 04:38:44;;;;;;;6.13;4.65;;;;;;;15.21;86.44;101113.94;5032446;28;20034;-72
2022/10/08 04:41:22;;;;;;;10.98;5.35;;;;;;;15.14;85.51;101119.84;5031532;28;20350;-72
2022/10/08 04:43:51;;;;;;;5.57;4.55;;;;;;;15.20;85.50;101123.34;5031740;28;20052;-72
2022/10/08 04:46:20;;;;;;;5.93;4.28;;;;;;;15.24;85.55;101116.94;5032417;28;20037;-73
2022/10/08 04:48:53;;;;;;;6.88;4.88;;;;;;;15.28;85.82;101125.41;5032243;28;20048;-72
2022/10/08 04:51:24;;;;;;;11.38;5.20;;;;;;;15.34;84.84;101126.19;5032261;28;20045;-72
2022/10/08 04:53:53;;;;;;;8.25;5.00;;;;;;;15.31;84.73;101116.56;5032223;28;20050;-72
2022/10/08 04:56:25;;;;;;;7.65;5.18;;;;;;;15.29;85.93;101114.09;5030933;28;20053;-72
2022/10/08 04:58:56;;;;;;;10.20;4.68;;;;;;;15.26;85.90;101117.44;5032080;28;20060;-73
2022/10/08 05:01:25;;;;;;;9.32;5.20;;;;;;;15.17;86.37;101117.28;5030978;28;20049;-72
2022/10/08 05:03:54;;;;;;;7.28;4.95;;;;;;;15.14;85.99;101120.66;5032048;28;20053;-72
2022/10/08 05:06:26;;;;;;;9.32;4.97;;;;;;;15.16;86.45;101110.16;5030551;28;20042;-73
2022/10/08 05:08:56;;;;;;;7.28;5.38;;;;;;;15.28;85.32;101115.22;5032008;28;20064;-73
2022/10/08 05:11:26;;;;;;;6.68;4.80;;;;;;;15.30;84.51;101112.97;5024529;28;20045;-72
2022/10/08 05:13:55;;;;;;;12.82;5.88;;;;;;;15.32;84.33;101110.72;5032089;28;20068;-72
2022/10/08 05:16:24;;;;;;;8.95;5.35;;;;;;;15.21;84.86;101117.53;5028446;28;20038;-72
2022/10/08 05:18:52;;;;;;;9.60;5.93;;;;;;;15.23;84.58;101120.81;5028638;28;20050;-71
2022/10/08 05:21:23;;;;;;;8.13;5.80;;;;;;;15.24;85.58;101121.66;5045879;28;20034;-73
2022/10/08 05:24:06;;;;;;;8.05;5.35;;;;;;;15.16;85.83;101128.63;5028497;28;20042;-73
2022/10/08 05:26:36;;;;;;;10.43;5.32;;;;;;;15.24;85.64;101129.91;5045235;28;20033;-72
2022/10/08 05:29:24;;;;;;;9.60;5.60;;;;;;;15.32;84.54;101141.06;5031972;28;20400;-72
2022/10/08 05:31:52;;;;;;;6.78;5.20;;;;;;;15.20;85.13;101143.44;5031854;28;20052;-72
2022/10/08 05:34:20;;;;;;;10.70;5.40;;;;;;;15.21;84.93;101136.00;5023862;28;20048;-73
2022/10/08 05:36:50;;;;;;;11.75;4.85;;;;;;;15.19;84.77;101144.56;5026746;28;20049;-72
2022/10/08 05:39:18;;;;;;;6.68;4.93;;;;;;;15.17;84.75;101144.06;5018668;28;20409;-72
2022/10/08 05:41:47;;;;;;;11.60;5.47;;;;;;;15.24;84.28;101125.19;5027538;28;20076;-72
2022/10/08 05:44:16;;;;;;;7.55;5.07;;;;;;;15.26;83.75;101138.69;5029120;28;20050;-72
2022/10/08 05:46:44;;;;;;;9.35;5.07;;;;;;;15.16;84.12;101129.44;5030872;28;20044;-72
2022/10/08 05:49:20;;;;;;;8.68;4.90;;;;;;;15.17;84.06;101144.88;5030814;28;20416;-72
2022/10/08 05:51:49;;;;;;;6.20;4.82;;;;;;;15.11;84.60;101137.78;5028091;28;20052;-72
2022/10/08 05:54:17;;;;;;;7.35;4.80;;;;;;;15.05;84.69;101148.06;5029383;28;20041;-72
2022/10/08 05:56:45;;;;;;;7.30;4.78;;;;;;;15.05;84.28;101148.06;5033856;28;20053;-72
2022/10/08 05:59:17;;;;;;;8.90;4.93;;;;;;;15.21;84.04;101145.13;5033031;28;20054;-72
2022/10/08 06:01:45;;;;;;;17.40;6.45;;;;;;;15.40;82.99;101153.34;5050008;28;20388;-72
2022/10/08 06:04:13;;;;;;;10.25;4.65;;;;;;;15.28;83.82;101150.25;5034666;28;20049;-72
2022/10/08 06:06:42;;;;;;;8.52;5.40;;;;;;;15.44;83.80;101161.84;5025068;28;20492;-72
2022/10/08 06:09:16;;;;;;;13.05;5.78;;;;;;;15.56;83.43;101153.94;5030678;28;20049;-72
2022/10/08 06:11:46;;;;;;;8.57;5.90;;;;;;;15.83;82.26;101157.09;5034973;28;20068;-72
2022/10/08 06:14:19;;;;;;;7.32;5.30;;;;;;;15.98;81.83;101158.81;5034794;28;20060;-72
2022/10/08 06:16:47;;;;;;;9.50;5.65;;;;;;;16.22;80.89;101157.84;5033909;28;20064;-72
2022/10/08 06:19:15;;;;;;;7.05;5.32;;;;;;;16.30;80.00;101159.94;5035345;28;20049;-72
2022/10/08 06:21:43;;;;;;;9.75;5.40;;;;;;;16.44;79.61;101165.47;5034846;28;20045;-72
2022/10/08 06:24:11;;;;;;;10.25;5.55;;;;;;;16.27;80.55;101168.00;5034758;28;20400;-72
2022/10/08 06:26:42;;;;;;;9.02;5.13;;;;;;;16.33;81.15;101181.38;5020588;28;20057;-72
2022/10/08 06:29:14;;;;;;;9.25;5.50;;;;;;;16.50;80.50;101168.94;5034981;28;20415;-72
2022/10/08 06:31:44;;;;;;;5.72;4.60;;;;;;;16.75;78.73;101172.31;5027120;28;20033;-72
2022/10/08 06:34:12;;;;;;;9.15;5.50;;;;;;;17.09;77.73;101179.38;5034673;28;20038;-72
2022/10/08 06:36:40;;;;;;;5.70;4.68;;;;;;;17.12;77.46;101178.78;5034516;28;20518;-72
2022/10/08 06:39:11;;;;;;;7.68;5.03;;;;;;;17.18;77.76;101177.53;5034477;28;20064;-72
2022/10/08 06:41:39;;;;;;;8.48;5.10;;;;;;;17.30;76.43;101178.94;5034316;28;20049;-72
2022/10/08 06:44:10;;;;;;;10.68;5.68;;;;;;;17.46;75.83;101177.44;5034428;28;20044;-72
2022/10/08 06:46:38;;;;;;;9.90;5.53;;;;;;;17.65;74.79;101172.88;5048454;28;20044;-72
2022/10/08 06:49:07;;;;;;;9.65;5.78;;;;;;;17.78;74.57;101177.53;5033867;28;20076;-72
2022/10/08 06:51:35;;;;;;;12.35;6.43;;;;;;;17.83;74.78;101173.81;5033999;28;20061;-72
2022/10/08 06:54:03;;;;;;;11.32;5.75;;;;;;;18.06;72.07;101177.44;5034962;28;20049;-72
2022/10/08 06:56:38;;;;;;;11.00;6.20;;;;;;;17.96;71.43;101177.66;5034158;28;20060;-72
2022/10/08 06:59:06;;;;;;;11.40;6.32;;;;;;;17.85;73.06;101182.63;5033850;28;20408;-72
2022/10/08 07:01:37;;;;;;;8.57;5.85;;;;;;;17.87;71.41;101180.34;5032589;28;20088;-72
2022/10/08 07:04:06;;;;;;;8.60;6.10;;;;;;;18.31;70.35;101183.44;5034256;28;20392;-72
2022/10/08 07:06:34;;;;;;;8.77;6.22;;;;;;;18.75;66.67;101188.31;5033827;28;20041;-72
2022/10/08 07:09:03;;;;;;;7.90;5.78;;;;;;;18.52;67.32;101183.69;5033915;28;20048;-72
2022/10/08 07:11:32;;;;;;;9.23;5.20;;;;;;;18.69;67.06;101195.97;5031012;28;20053;-71
2022/10/08 07:14:00;;;;;;;6.75;4.88;;;;;;;18.80;66.60;101197.31;5031636;28;20052;-72
2022/10/08 07:16:29;;;;;;;8.48;5.47;;;;;;;18.76;66.22;101195.50;5032460;28;20404;-72
2022/10/08 07:18:57;;;;;;;8.25;5.35;;;;;;;18.80;66.50;101189.00;5032610;28;20049;-72
2022/10/08 07:21:27;;;;;;;9.57;4.85;;;;;;;19.06;65.88;101179.97;5033420;28;20069;-84
2022/10/08 07:23:58;;;;;;;7.72;4.68;;;;;;;19.54;63.97;101182.94;5032381;28;20045;-84
2022/10/08 07:26:31;;;;;;;7.18;4.88;;;;;;;19.50;63.57;101187.50;5032938;28;20050;-84
2022/10/08 07:29:05;;;;;;;9.95;6.15;;;;;;;19.48;62.93;101187.03;5032560;28;20049;-84
2022/10/08 07:31:35;;;;;;;10.15;6.85;;;;;;;19.64;63.30;101181.00;5029010;28;20133;-84
2022/10/08 07:34:07;;;;;;;10.75;6.68;;;;;;;19.79;62.96;101188.00;5045955;28;20485;-84
2022/10/08 07:36:35;;;;;;;9.23;6.03;;;;;;;19.95;62.47;101197.44;5030603;28;20492;-84
2022/10/08 07:39:12;;;;;;;10.95;6.25;;;;;;;19.92;62.07;101188.94;5032314;28;20487;-84
2022/10/08 07:41:41;;;;;;;9.05;5.78;;;;;;;20.04;61.54;101194.66;5015914;28;20052;-84
2022/10/08 07:44:10;;;;;;;11.02;5.63;;;;;;;20.14;61.57;101199.88;5032280;28;20448;-84
2022/10/08 07:46:45;;;;;;;9.32;6.18;;;;;;;20.15;62.32;101195.16;5058874;28;20518;-84
2022/10/08 07:49:15;;;;;;;11.30;6.30;;;;;;;20.40;61.27;101200.97;5049028;28;20400;-85
2022/10/08 07:51:43;;;;;;;7.90;5.75;;;;;;;20.37;61.82;101196.88;5018401;28;20049;-84
2022/10/08 07:54:17;;;;;;;9.98;5.93;;;;;;;20.54;60.93;101193.22;5039236;28;20041;-84
2022/10/08 07:56:45;;;;;;;11.43;6.50;;;;;;;20.52;60.75;101205.81;5038620;28;20045;-84
2022/10/08 07:59:14;;;;;;;9.88;5.72;;;;;;;20.49;59.88;101201.72;5037776;28;20066;-84
2022/10/08 08:01:43;;;;;;;9.73;5.88;;;;;;;20.34;61.05;101189.19;5057678;28;20422;-84
2022/10/08 08:04:12;;;;;;;10.63;5.88;;;;;;;20.65;60.24;101202.00;5023104;28;20041;-82
2022/10/08 08:06:43;;;;;;;8.68;5.32;;;;;;;20.73;59.72;101207.88;5033017;28;20053;-83
2022/10/08 08:09:13;;;;;;;8.65;5.18;;;;;;;20.73;60.03;101210.66;5029591;28;20369;-83
2022/10/08 08:11:41;;;;;;;11.13;5.70;;;;;;;20.78;60.17;101216.81;5015644;28;20511;-83
2022/10/08 08:14:09;;;;;;;10.55;5.22;;;;;;;20.66;60.24;101205.59;5028155;28;20049;-82
2022/10/08 08:16:38;;;;;;;18.02;6.30;;;;;;;20.84;59.26;101209.13;5024516;28;20117;-82
2022/10/08 08:19:07;;;;;;;12.82;5.30;;;;;;;20.82;59.07;101203.06;5030644;28;20412;-82
2022/10/08 08:21:37;;;;;;;9.15;4.90;;;;;;;21.00;59.23;101216.91;5014672;28;20046;-83
2022/10/08 08:24:12;;;;;;;7.25;4.70;;;;;;;20.97;59.02;101212.81;5031292;28;20042;-83
2022/10/08 08:26:41;;;;;;;8.38;4.88;;;;;;;20.98;58.57;101197.78;5044472;28;20054;-82
2022/10/08 08:29:17;;;;;;;9.25;5.65;;;;;;;21.00;58.67;101203.81;5031221;28;20057;-81
2022/10/08 08:31:47;;;;;;;10.60;5.47;;;;;;;21.14;59.81;101209.13;5014188;28;20068;-69
2022/10/08 08:34:21;;;;;;;8.27;5.43;;;;;;;21.21;57.73;101217.75;5032188;28;20046;-69
2022/10/08 08:36:52;;;;;;;15.30;6.13;;;;;;;21.48;57.78;101210.06;5031569;28;20108;-71
2022/10/08 08:39:23;;;;;;;9.88;5.65;;;;;;;22.01;55.53;101209.59;5030931;28;20415;-72
2022/10/08 08:42:20;;;;;;;7.85;5.07;;;;;;;22.12;54.80;101214.75;5032226;28;20419;-92
2022/10/08 08:45:00;;;;;;;9.40;5.07;;;;;;;22.02;55.32;101202.06;5032254;28;20042;-94
2022/10/08 08:47:36;;;;;;;12.85;5.88;;;;;;;21.95;55.66;101210.97;5015300;28;20045;-70
2022/10/08 08:50:23;;;;;;;7.90;5.63;;;;;;;22.10;55.89;101203.94;5032324;28;20072;-84
2022/10/08 08:52:51;;;;;;;12.40;5.80;;;;;;;22.14;54.41;101193.72;5029972;28;20067;-70
2022/10/08 08:55:45;;;;;;;14.93;5.53;;;;;;;22.31;54.82;101202.22;5031734;28;20052;-80
2022/10/08 08:58:38;;;;;;;9.02;6.30;;;;;;;22.07;55.22;101213.00;5029469;28;20050;-71
2022/10/08 09:01:08;;;;;;;7.13;5.53;;;;;;;22.52;54.12;101211.38;5031737;28;20080;-71
2022/10/08 09:03:42;;;;;;;10.30;5.50;;;;;;;22.84;52.66;101212.78;5031846;28;20060;-71
2022/10/08 09:06:16;;;;;;;11.23;5.60;;;;;;;23.04;51.38;101213.81;5032286;28;20049;-71
2022/10/08 09:09:00;;;;;;;10.90;6.35;;;;;;;22.77;52.14;101216.97;5031866;28;20049;-71
2022/10/08 09:11:29;;;;;;;9.80;5.88;;;;;;;23.21;52.45;101221.94;5029120;28;20037;-71
2022/10/08 09:14:14;;;;;;;7.28;5.28;;;;;;;23.07;51.26;101221.50;5028977;28;20049;-71
2022/10/08 09:16:42;;;;;;;16.17;7.10;;;;;;;23.25;50.46;101226.81;5030929;28;20050;-71
2022/10/08 09:19:11;;;;;;;7.80;5.15;;;;;;;23.61;50.17;101225.13;5031129;28;20053;-71
2022/10/08 09:21:38;;;;;;;7.13;5.30;;;;;;;23.24;52.58;101217.63;5031644;28;20786;-71
2022/10/08 09:24:08;;;;;;;10.40;6.30;;;;;;;24.00;49.37;101216.25;5027951;28;20052;-71
2022/10/08 09:26:36;;;;;;;7.90;5.90;;;;;;;24.14;49.79;101219.44;5027626;28;20038;-71
2022/10/08 09:29:04;;;;;;;10.13;5.90;;;;;;;23.55;51.34;101216.19;5030583;28;20037;-71
2022/10/08 09:31:38;;;;;;;8.77;6.18;;;;;;;23.39;50.97;101220.88;5030587;28;20392;-71
2022/10/08 09:34:09;;;;;;;11.90;6.03;;;;;;;23.49;50.71;101221.22;5030767;28;20049;-70
2022/10/08 09:36:40;;;;;;;9.43;5.78;;;;;;;23.82;48.76;101222.16;5031148;28;20045;-71
2022/10/08 09:39:27;;;;;;;13.23;6.13;;;;;;;23.79;50.35;101208.88;5029985;28;20052;-71
2022/10/08 09:42:08;;;;;;;10.95;6.15;;;;;;;24.25;48.13;101208.53;5035164;28;20488;-71
2022/10/08 09:44:44;;;;;;;9.35;6.35;;;;;;;24.01;49.25;101209.47;5028883;28;20053;-72
2022/10/08 09:47:16;;;;;;;10.77;6.50;;;;;;;23.89;49.06;101213.94;5029254;28;20515;-71
2022/10/08 09:49:48;;;;;;;7.15;5.22;;;;;;;24.11;48.64;101197.81;5035470;28;20049;-71
2022/10/08 09:52:27;;;;;;;9.33;6.20;;;;;;;23.81;49.94;101200.13;5032836;28;20060;-71
2022/10/08 09:55:07;;;;;;;9.90;6.53;;;;;;;24.23;49.63;101202.50;5032457;28;20045;-71
2022/10/08 09:57:48;;;;;;;7.72;5.78;;;;;;;24.49;48.80;101191.97;5032137;28;20045;-71
2022/10/08 10:00:25;;;;;;;8.20;5.25;;;;;;;24.51;47.78;101201.63;5034452;28;20120;-71
2022/10/08 10:02:55;;;;;;;10.75;7.25;;;;;;;24.75;48.57;101196.19;5034767;28;20396;-71
2022/10/08 10:05:31;;;;;;;9.65;6.97;;;;;;;24.73;48.13;101199.34;5032936;28;20061;-70
2022/10/08 10:07:59;;;;;;;10.60;6.50;;;;;;;24.49;48.63;101201.16;5030948;28;20053;-71
2022/10/08 10:10:44;;;;;;;11.27;6.80;;;;;;;24.53;49.13;101198.44;5034242;28;20403;-71
2022/10/08 10:13:19;;;;;;;11.02;7.07;;;;;;;24.60;48.99;101195.84;5021738;28;20049;-71
2022/10/08 10:16:08;;;;;;;9.40;6.97;;;;;;;24.90;48.19;101192.59;5031670;28;20049;-70
2022/10/08 10:18:59;;;;;;;10.45;6.05;;;;;;;25.15;47.35;101189.53;5028875;28;20045;-70
2022/10/08 10:22:10;;;;;;;12.73;7.03;;;;;;;25.61;45.87;101185.34;5031161;28;20045;-70
2022/10/08 10:24:51;;;;;;;8.73;6.15;;;;;;;26.06;45.12;101187.75;5030715;28;20383;-70
2022/10/08 10:27:40;;;;;;;12.13;7.22;;;;;;;25.58;45.79;101177.66;5026896;28;20042;-69
2022/10/08 10:30:19;;;;;;;11.35;7.32;;;;;;;25.57;44.39;101176.81;5030677;28;20045;-71
2022/10/08 10:32:55;;;;;;;10.77;5.63;;;;;;;25.39;45.71;101170.84;5031181;28;20041;-75
2022/10/08 10:35:26;;;;;;;12.45;6.50;;;;;;;25.13;47.71;101171.47;5028199;28;20053;-75
2022/10/08 10:38:12;;;;;;;13.52;6.93;;;;;;;25.02;47.16;101168.44;5031791;28;20444;-75
2022/10/08 10:40:55;;;;;;;11.65;7.03;;;;;;;24.86;48.13;101165.66;5026240;28;20060;-75
2022/10/08 10:43:47;;;;;;;8.23;5.88;;;;;;;24.86;47.99;101165.66;5030244;28;20547;-75
2022/10/08 10:46:52;;;;;;;11.13;6.40;;;;;;;24.92;47.55;101156.63;5025446;28;20045;-76
2022/10/08 10:49:31;;;;;;;11.10;7.25;;;;;;;24.75;47.16;101162.59;5038658;28;20044;-76
2022/10/08 10:52:32;;;;;;;13.18;8.85;;;;;;;24.66;47.63;101152.41;5032263;28;20109;-75
2022/10/08 10:55:17;;;;;;;14.02;8.07;;;;;;;24.59;47.73;101155.06;5033455;28;20046;-76
2022/10/08 10:58:04;;;;;;;11.38;6.88;;;;;;;24.76;47.50;101151.03;5032709;28;20049;-75
2022/10/08 11:00:54;;;;;;;11.85;7.20;;;;;;;24.87;46.73;101133.72;5031632;28;20061;-75
2022/10/08 11:03:24;;;;;;;11.93;7.30;;;;;;;24.83;48.10;101142.03;5033213;28;20041;-76
2022/10/08 11:06:13;;;;;;;12.60;7.80;;;;;;;25.22;47.70;101142.09;5023312;28;20484;-75
2022/10/08 11:09:16;;;;;;;15.65;8.60;;;;;;;25.30;47.05;101133.81;5033971;28;20496;-75
2022/10/08 11:11:51;;;;;;;15.02;8.23;;;;;;;25.48;46.64;101132.19;5033850;28;20045;-75
2022/10/08 11:14:43;;;;;;;10.35;7.13;;;;;;;25.80;46.67;101130.44;5032757;28;20400;-75
2022/10/08 11:17:56;;;;;;;17.50;8.00;;;;;;;26.03;45.60;101136.03;5032553;28;20053;-76
2022/10/08 11:20:42;;;;;;;17.60;8.18;;;;;;;26.11;45.08;101122.97;5027662;28;20062;-75
2022/10/08 11:23:25;;;;;;;10.25;7.50;;;;;;;26.00;45.44;101122.78;5029191;28;20519;-77
2022/10/08 11:26:42;;;;;;;13.07;8.88;;;;;;;26.13;45.10;101118.59;5031672;28;20388;-76
2022/10/08 11:29:48;;;;;;;21.38;8.68;;;;;;;26.01;45.30;101107.56;5026161;28;20136;-76
2022/10/08 11:32:18;;;;;;;14.25;8.57;;;;;;;26.18;45.20;101117.47;5024772;28;20058;-75
2022/10/08 11:35:18;;;;;;;13.13;7.90;;;;;;;26.46;44.53;101116.34;5027484;28;20438;-74
2022/10/08 11:37:55;;;;;;;13.82;7.97;;;;;;;26.67;44.42;101112.22;5020937;28;20068;-76
2022/10/08 11:40:37;;;;;;;14.68;7.88;;;;;;;26.35;44.10;101109.75;5025294;28;20719;-75
2022/10/08 11:43:13;;;;;;;13.52;8.15;;;;;;;26.58;43.70;101097.69;5028019;28;20792;-75
2022/10/08 11:45:44;;;;;;;11.60;6.97;;;;;;;26.56;44.14;101096.06;5029214;28;20053;-74
2022/10/08 11:48:35;;;;;;;12.27;7.38;;;;;;;26.64;43.99;101084.94;5030375;28;20515;-74
2022/10/08 11:51:19;;;;;;;13.75;8.05;;;;;;;26.86;43.43;101093.63;5027902;28;20598;-75
2022/10/08 11:54:14;;;;;;;16.65;7.90;;;;;;;26.68;43.10;101083.78;5026041;28;20050;-73
2022/10/08 11:56:46;;;;;;;14.57;8.82;;;;;;;26.37;42.84;101096.16;5025871;28;20064;-73
2022/10/08 11:59:21;;;;;;;14.55;8.20;;;;;;;26.48;43.59;101091.50;5030142;28;20065;-75
2022/10/08 12:01:57;;;;;;;18.13;9.40;;;;;;;26.67;44.21;101084.16;5029689;28;20045;-75